KAPC/APC METAR and TAF weather

Enter ICAO airport designator
Station Type Date Time Source
KAPC METAR 2019/06/24 23:54 UTC NOAA

KAPC 242354Z 19016KT 10SM CLR 22/14 A2980 RMK AO2 SLP084 T02220139 10261 20189 56014


Station Type Date Time Source
KAPC Decoded METAR 2019/06/24 23:54 UTC NOAA

NAPA COUNTY AIRPORT, CA, United States (KAPC) 38-12N 122-17W 13M
Jun 24, 2019 - 07:54 PM EDT / 2019.06.24 2354 UTC
Wind: from the S (190 degrees) at 18 MPH (16 KT):0
Visibility: 10 mile(s):0
Sky conditions: clear
Temperature: 72.0 F (22.2 C)
Dew Point: 57.0 F (13.9 C)
Relative Humidity: 59%
Pressure (altimeter): 29.8 in. Hg (1009 hPa)
Pressure tendency: 0.04 inches (1.4 hPa) lower than three hours ago
ob: KAPC 242354Z 19016KT 10SM CLR 22/14 A2980 RMK AO2 SLP084 T02220139 10261 20189 56014
cycle: 0

Station Type Date Time Source
KAPC TAF 2016/02/08 18:39 UTC NOAA

TAF KAPC 081738Z 0818/0918 08008KT P6SM SKC
FM081900 09012KT P6SM SKC
FM090000 07007KT P6SM SKC
FM090600 04004KT P6SM SKC

Example: see airport list